sensor_id;sensor_type;location;lat;lon;timestamp;pressure;altitude;pressure_sealevel;temperature;humidity
69796;BME280;57073;45.650;9.612;2023-02-14T00:07:06;101173.91;;;7.47;54.42
69796;BME280;57073;45.650;9.612;2023-02-14T00:17:06;101153.03;;;7.33;54.20
69796;BME280;57073;45.650;9.612;2023-02-14T00:27:07;101150.53;;;7.04;54.50
69796;BME280;57073;45.650;9.612;2023-02-14T00:37:07;101148.00;;;6.75;55.42
69796;BME280;57073;45.650;9.612;2023-02-14T00:47:08;101137.13;;;6.86;54.81
69796;BME280;57073;45.650;9.612;2023-02-14T00:57:09;101138.09;;;6.57;55.62
69796;BME280;57073;45.650;9.612;2023-02-14T01:07:09;101123.56;;;6.32;56.85
69796;BME280;57073;45.650;9.612;2023-02-14T01:17:09;101114.13;;;6.38;56.18
69796;BME280;57073;45.650;9.612;2023-02-14T01:27:10;101096.03;;;6.41;56.11
69796;BME280;57073;45.650;9.612;2023-02-14T01:37:10;101095.94;;;6.33;54.93
69796;BME280;57073;45.650;9.612;2023-02-14T01:47:11;101085.00;;;6.26;54.30
69796;BME280;57073;45.650;9.612;2023-02-14T01:57:14;101085.41;;;6.31;55.13
69796;BME280;57073;45.650;9.612;2023-02-14T02:07:20;101083.44;;;6.33;55.50
69796;BME280;57073;45.650;9.612;2023-02-14T02:58:58;101023.75;;;5.87;56.16
69796;BME280;57073;45.650;9.612;2023-02-14T03:30:17;101016.69;;;5.59;56.76
69796;BME280;57073;45.650;9.612;2023-02-14T03:40:27;101000.25;;;5.73;56.57
69796;BME280;57073;45.650;9.612;2023-02-14T03:50:31;100993.19;;;5.82;57.11
69796;BME280;57073;45.650;9.612;2023-02-14T04:00:35;100993.50;;;5.79;56.91
69796;BME280;57073;45.650;9.612;2023-02-14T04:10:37;100984.31;;;5.53;57.39
69796;BME280;57073;45.650;9.612;2023-02-14T04:20:39;100989.91;;;5.50;57.91
69796;BME280;57073;45.650;9.612;2023-02-14T04:30:39;100975.78;;;5.21;58.14
69796;BME280;57073;45.650;9.612;2023-02-14T04:40:39;100965.13;;;5.21;58.01
69796;BME280;57073;45.650;9.612;2023-02-14T04:50:40;100962.56;;;5.58;57.16
69796;BME280;57073;45.650;9.612;2023-02-14T05:00:40;100949.91;;;5.70;55.81
69796;BME280;57073;45.650;9.612;2023-02-14T05:10:41;100964.59;;;5.84;55.53
69796;BME280;57073;45.650;9.612;2023-02-14T05:20:41;100967.09;;;5.85;56.58
69796;BME280;57073;45.650;9.612;2023-02-14T05:30:41;100975.53;;;6.00;55.13
69796;BME280;57073;45.650;9.612;2023-02-14T05:40:42;100979.56;;;5.94;55.53
69796;BME280;57073;45.650;9.612;2023-02-14T05:50:42;100985.94;;;5.84;56.03
69796;BME280;57073;45.650;9.612;2023-02-14T06:00:44;101001.31;;;5.90;56.05
69796;BME280;57073;45.650;9.612;2023-02-14T06:10:45;101003.28;;;5.78;55.76
69796;BME280;57073;45.650;9.612;2023-02-14T06:20:45;101015.84;;;5.48;57.00
69796;BME280;57073;45.650;9.612;2023-02-14T06:30:46;101025.22;;;5.43;57.05
69796;BME280;57073;45.650;9.612;2023-02-14T06:40:46;101035.31;;;5.29;57.78
69796;BME280;57073;45.650;9.612;2023-02-14T06:50:46;101051.41;;;5.47;57.09
69796;BME280;57073;45.650;9.612;2023-02-14T07:00:47;101054.78;;;5.40;57.91
69796;BME280;57073;45.650;9.612;2023-02-14T07:10:47;101062.34;;;5.54;57.43
69796;BME280;57073;45.650;9.612;2023-02-14T07:20:49;101073.69;;;5.85;57.60
69796;BME280;57073;45.650;9.612;2023-02-14T07:30:49;101075.59;;;6.60;55.72
69796;BME280;57073;45.650;9.612;2023-02-14T07:40:52;101079.00;;;7.07;54.72
69796;BME280;57073;45.650;9.612;2023-02-14T07:50:52;101066.91;;;7.93;51.85
69796;BME280;57073;45.650;9.612;2023-02-14T08:00:55;101061.34;;;8.73;49.87
69796;BME280;57073;45.650;9.612;2023-02-14T08:10:56;101059.84;;;9.46;49.76
69796;BME280;57073;45.650;9.612;2023-02-14T08:20:56;101052.97;;;10.01;48.38
69796;BME280;57073;45.650;9.612;2023-02-14T08:30:57;101042.53;;;10.23;47.67
69796;BME280;57073;45.650;9.612;2023-02-14T08:41:00;101035.94;;;10.50;45.67
69796;BME280;57073;45.650;9.612;2023-02-14T08:51:08;101029.84;;;10.87;44.51
69796;BME280;57073;45.650;9.612;2023-02-14T09:01:11;101034.78;;;11.07;43.92
69796;BME280;57073;45.650;9.612;2023-02-14T09:11:15;101028.34;;;11.62;44.15
69796;BME280;57073;45.650;9.612;2023-02-14T09:21:26;101027.09;;;11.88;43.16
69796;BME280;57073;45.650;9.612;2023-02-14T09:31:26;101030.22;;;12.30;43.40
69796;BME280;57073;45.650;9.612;2023-02-14T09:51:30;101024.09;;;12.21;43.10
69796;BME280;57073;45.650;9.612;2023-02-14T10:01:41;101018.25;;;12.17;42.52
69796;BME280;57073;45.650;9.612;2023-02-14T10:11:44;101027.13;;;12.18;43.02
69796;BME280;57073;45.650;9.612;2023-02-14T10:21:56;101016.94;;;12.13;43.42
69796;BME280;57073;45.650;9.612;2023-02-14T10:32:01;100999.59;;;12.16;42.31
69796;BME280;57073;45.650;9.612;2023-02-14T11:03:00;100945.78;;;12.52;42.39
69796;BME280;57073;45.650;9.612;2023-02-14T11:13:28;100945.50;;;12.62;43.04
69796;BME280;57073;45.650;9.612;2023-02-14T11:23:35;100921.97;;;12.71;41.31
69796;BME280;57073;45.650;9.612;2023-02-14T11:33:42;100902.91;;;12.72;41.61
69796;BME280;57073;45.650;9.612;2023-02-14T11:43:43;100883.94;;;12.80;41.99
69796;BME280;57073;45.650;9.612;2023-02-14T11:53:45;100868.94;;;12.93;42.16
69796;BME280;57073;45.650;9.612;2023-02-14T12:03:47;100860.06;;;12.99;41.23
69796;BME280;57073;45.650;9.612;2023-02-14T12:13:56;100849.50;;;13.26;41.32
69796;BME280;57073;45.650;9.612;2023-02-14T12:34:17;100801.88;;;13.74;40.73
69796;BME280;57073;45.650;9.612;2023-02-14T13:16:04;100734.91;;;13.98;38.43
69796;BME280;57073;45.650;9.612;2023-02-14T13:26:34;100712.69;;;13.96;38.46
69796;BME280;57073;45.650;9.612;2023-02-14T13:36:37;100700.66;;;13.98;39.51
69796;BME280;57073;45.650;9.612;2023-02-14T13:46:46;100683.81;;;13.96;38.48
69796;BME280;57073;45.650;9.612;2023-02-14T13:56:48;100678.63;;;13.95;38.25
69796;BME280;57073;45.650;9.612;2023-02-14T14:17:17;100662.03;;;14.05;38.85
69796;BME280;57073;45.650;9.612;2023-02-14T14:27:23;100658.91;;;14.08;39.51
69796;BME280;57073;45.650;9.612;2023-02-14T14:37:27;100645.22;;;14.03;38.96
69796;BME280;57073;45.650;9.612;2023-02-14T14:47:37;100643.97;;;13.98;39.20
69796;BME280;57073;45.650;9.612;2023-02-14T14:57:39;100637.53;;;14.06;39.64
69796;BME280;57073;45.650;9.612;2023-02-14T15:07:47;100638.16;;;14.02;38.87
69796;BME280;57073;45.650;9.612;2023-02-14T15:17:47;100626.72;;;14.06;40.09
69796;BME280;57073;45.650;9.612;2023-02-14T15:27:48;100615.31;;;14.11;40.20
69796;BME280;57073;45.650;9.612;2023-02-14T15:37:50;100618.44;;;14.14;39.33
69796;BME280;57073;45.650;9.612;2023-02-14T15:47:53;100619.47;;;14.13;39.50
69796;BME280;57073;45.650;9.612;2023-02-14T15:58:02;100611.34;;;14.07;39.78
69796;BME280;57073;45.650;9.612;2023-02-14T16:08:04;100614.47;;;13.97;38.64
69796;BME280;57073;45.650;9.612;2023-02-14T16:18:17;100609.28;;;13.82;39.22
69796;BME280;57073;45.650;9.612;2023-02-14T16:28:19;100619.84;;;13.70;39.40
69796;BME280;57073;45.650;9.612;2023-02-14T16:38:20;100622.31;;;13.58;39.96
69796;BME280;57073;45.650;9.612;2023-02-14T16:48:21;100625.63;;;13.47;39.92
69796;BME280;57073;45.650;9.612;2023-02-14T16:58:25;100634.09;;;13.31;40.59
69796;BME280;57073;45.650;9.612;2023-02-14T17:08:27;100628.16;;;13.14;40.15
69796;BME280;57073;45.650;9.612;2023-02-14T17:18:29;100629.13;;;12.93;41.22
69796;BME280;57073;45.650;9.612;2023-02-14T17:28:30;100638.56;;;12.75;41.53
69796;BME280;57073;45.650;9.612;2023-02-14T17:38:32;100630.47;;;12.47;41.57
69796;BME280;57073;45.650;9.612;2023-02-14T17:48:32;100627.53;;;12.35;42.62
69796;BME280;57073;45.650;9.612;2023-02-14T17:58:34;100627.91;;;12.04;44.09
69796;BME280;57073;45.650;9.612;2023-02-14T18:08:37;100630.63;;;11.89;44.54
69796;BME280;57073;45.650;9.612;2023-02-14T18:18:38;100636.38;;;11.64;44.98
69796;BME280;57073;45.650;9.612;2023-02-14T18:28:39;100625.72;;;11.35;45.99
69796;BME280;57073;45.650;9.612;2023-02-14T18:38:41;100628.91;;;11.23;46.41
69796;BME280;57073;45.650;9.612;2023-02-14T18:48:42;100630.56;;;11.24;46.15
69796;BME280;57073;45.650;9.612;2023-02-14T18:58:44;100639.25;;;10.75;47.98
69796;BME280;57073;45.650;9.612;2023-02-14T19:08:46;100639.31;;;10.82;47.24
69796;BME280;57073;45.650;9.612;2023-02-14T19:18:49;100632.28;;;10.66;48.23
69796;BME280;57073;45.650;9.612;2023-02-14T19:28:54;100640.91;;;10.61;47.59
69796;BME280;57073;45.650;9.612;2023-02-14T19:38:55;100641.44;;;10.18;48.34
69796;BME280;57073;45.650;9.612;2023-02-14T19:48:56;100636.44;;;10.15;49.34
69796;BME280;57073;45.650;9.612;2023-02-14T19:58:57;100632.38;;;10.20;48.93
69796;BME280;57073;45.650;9.612;2023-02-14T20:08:58;100633.81;;;10.07;48.68
69796;BME280;57073;45.650;9.612;2023-02-14T20:19:06;100634.31;;;10.11;48.55
69796;BME280;57073;45.650;9.612;2023-02-14T20:29:08;100629.38;;;9.76;48.99
69796;BME280;57073;45.650;9.612;2023-02-14T20:39:11;100629.66;;;9.58;49.55
69796;BME280;57073;45.650;9.612;2023-02-14T20:49:12;100629.91;;;9.49;49.12
69796;BME280;57073;45.650;9.612;2023-02-14T20:59:13;100625.84;;;9.53;48.28
69796;BME280;57073;45.650;9.612;2023-02-14T21:09:14;100604.41;;;9.53;48.49
69796;BME280;57073;45.650;9.612;2023-02-14T21:19:15;100609.38;;;9.41;48.82
69796;BME280;57073;45.650;9.612;2023-02-14T21:29:16;100609.84;;;9.45;48.38
69796;BME280;57073;45.650;9.612;2023-02-14T21:39:17;100609.63;;;9.23;48.47
69796;BME280;57073;45.650;9.612;2023-02-14T21:49:19;100609.41;;;9.01;49.42
69796;BME280;57073;45.650;9.612;2023-02-14T21:59:38;100607.84;;;8.76;49.59
69796;BME280;57073;45.650;9.612;2023-02-14T22:09:39;100605.41;;;8.58;50.65
69796;BME280;57073;45.650;9.612;2023-02-14T22:19:39;100611.72;;;8.65;49.89
69796;BME280;57073;45.650;9.612;2023-02-14T22:29:40;100612.09;;;8.46;50.53
69796;BME280;57073;45.650;9.612;2023-02-14T22:39:41;100619.31;;;8.20;51.07
69796;BME280;57073;45.650;9.612;2023-02-14T22:49:41;100622.31;;;8.17;51.87
69796;BME280;57073;45.650;9.612;2023-02-14T22:59:42;100626.34;;;7.97;51.26
69796;BME280;57073;45.650;9.612;2023-02-14T23:09:42;100628.50;;;7.93;51.98
69796;BME280;57073;45.650;9.612;2023-02-14T23:19:43;100628.31;;;7.70;51.84
69796;BME280;57073;45.650;9.612;2023-02-14T23:30:04;100637.00;;;7.72;51.56
69796;BME280;57073;45.650;9.612;2023-02-14T23:40:05;100629.84;;;7.73;51.04
69796;BME280;57073;45.650;9.612;2023-02-14T23:50:06;100625.66;;;7.78;51.23
